createdAt,value
2023-01-25T00:03:16.269Z,1.3
2023-01-25T00:22:31.957Z,1.2
2023-01-25T00:41:45.372Z,1
2023-01-25T01:01:00.146Z,1
2023-01-25T01:20:16.763Z,1
2023-01-25T01:39:30.965Z,0.8
2023-01-25T01:58:47.019Z,1
2023-01-25T02:18:05.896Z,0.9
2023-01-25T02:37:17.810Z,0.9
2023-01-25T02:56:32.865Z,0.7
2023-01-25T03:15:55.491Z,0.8
2023-01-25T03:35:01.738Z,0.8
2023-01-25T03:54:16.363Z,0.9
2023-01-25T04:13:29.833Z,0.6
2023-01-25T04:32:43.399Z,0.5
2023-01-25T04:51:59.155Z,0.8
2023-01-25T05:11:14.820Z,0.9
2023-01-25T05:30:26.798Z,0.6
2023-01-25T05:49:41.630Z,0.5
2023-01-25T06:08:56.017Z,0.4
2023-01-25T06:28:11.464Z,0.4
2023-01-25T06:47:25.265Z,0.3
2023-01-25T07:06:39.801Z,0.6
2023-01-25T07:25:53.695Z,0.6
2023-01-25T07:45:08.900Z,0.7
2023-01-25T08:04:22.201Z,0.6
2023-01-25T08:23:36.125Z,0.6
2023-01-25T08:42:51.049Z,0.8
2023-01-25T09:02:05.874Z,0.8
2023-01-25T09:21:21.399Z,0.9
2023-01-25T09:40:34.015Z,0.7
2023-01-25T09:59:49.490Z,0.5
2023-01-25T10:19:05.342Z,0.8
2023-01-25T10:38:20.576Z,0.8
2023-01-25T10:57:36.245Z,0.9
2023-01-25T11:16:51.867Z,1.2
2023-01-25T11:36:06.623Z,1.1
2023-01-25T11:55:25.567Z,1
2023-01-25T12:14:34.329Z,0.6
2023-01-25T12:33:48.587Z,0.7
2023-01-25T12:53:03.583Z,0.7
2023-01-25T13:12:20.586Z,0.9
2023-01-25T13:31:46.471Z,0.5
2023-01-25T13:50:53.966Z,0.5
2023-01-25T14:10:10.202Z,0.9
2023-01-25T14:29:32.385Z,0.6
2023-01-25T14:48:38.503Z,0.8
2023-01-25T15:07:49.598Z,0.7
2023-01-25T15:27:05.623Z,0.7
2023-01-25T15:46:14.755Z,0.6
2023-01-25T16:05:29.495Z,0.5
2023-01-25T16:24:43.413Z,0.5
2023-01-25T16:43:57.235Z,0
2023-01-25T17:03:11.253Z,0.2
2023-01-25T17:22:25.826Z,-0.1
2023-01-25T17:41:37.165Z,0.1
2023-01-25T18:00:52.517Z,0.1
2023-01-25T18:20:10.954Z,-0.3
2023-01-25T18:39:27.146Z,-0.1
2023-01-25T18:58:41.235Z,-0.3
2023-01-25T19:17:56.556Z,-0.2
2023-01-25T19:37:10.846Z,-0.3
2023-01-25T19:56:24.443Z,-0.4
2023-01-25T20:15:38.739Z,-0.4
2023-01-25T20:34:54.069Z,-0.1
2023-01-25T20:54:05.931Z,-0.3
2023-01-25T21:13:17.529Z,-0.3
2023-01-25T21:32:30.578Z,-0.3
2023-01-25T21:51:44.949Z,-0.5
2023-01-25T22:11:07.325Z,-0.3
2023-01-25T22:30:16.913Z,-0.4
2023-01-25T22:49:32.207Z,-0.7
2023-01-25T23:08:44.367Z,-0.5
2023-01-25T23:28:00.693Z,-0.4
2023-01-25T23:47:15.592Z,-0.5
